sensor_id;sensor_type;location;lat;lon;timestamp;temperature;humidity
41965;DHT22;50120;53.250;8.702;2023-02-01T00:00:24;5.60;99.90
41965;DHT22;50120;53.250;8.702;2023-02-01T00:02:50;5.60;99.90
41965;DHT22;50120;53.250;8.702;2023-02-01T00:05:16;5.50;99.90
41965;DHT22;50120;53.250;8.702;2023-02-01T00:07:41;5.60;99.90
41965;DHT22;50120;53.250;8.702;2023-02-01T00:10:08;5.60;99.90
41965;DHT22;50120;53.250;8.702;2023-02-01T00:12:34;5.50;99.90
41965;DHT22;50120;53.250;8.702;2023-02-01T00:15:00;5.50;99.90
41965;DHT22;50120;53.250;8.702;2023-02-01T00:17:26;5.60;99.90
41965;DHT22;50120;53.250;8.702;2023-02-01T00:19:52;5.60;99.90
41965;DHT22;50120;53.250;8.702;2023-02-01T00:22:18;5.60;99.90
41965;DHT22;50120;53.250;8.702;2023-02-01T00:24:43;5.60;99.90
41965;DHT22;50120;53.250;8.702;2023-02-01T00:27:09;5.70;99.90
41965;DHT22;50120;53.250;8.702;2023-02-01T00:29:35;5.70;99.90
41965;DHT22;50120;53.250;8.702;2023-02-01T00:32:01;5.70;99.90
41965;DHT22;50120;53.250;8.702;2023-02-01T00:34:26;5.70;99.90
41965;DHT22;50120;53.250;8.702;2023-02-01T00:36:52;5.70;99.90
41965;DHT22;50120;53.250;8.702;2023-02-01T00:39:18;5.70;99.90
41965;DHT22;50120;53.250;8.702;2023-02-01T00:41:44;5.70;99.90
41965;DHT22;50120;53.250;8.702;2023-02-01T00:44:10;5.70;99.90
41965;DHT22;50120;53.250;8.702;2023-02-01T00:46:36;5.70;99.90
41965;DHT22;50120;53.250;8.702;2023-02-01T00:49:02;5.70;99.90
41965;DHT22;50120;53.250;8.702;2023-02-01T00:51:29;5.70;99.90
41965;DHT22;50120;53.250;8.702;2023-02-01T00:53:55;5.80;99.90
41965;DHT22;50120;53.250;8.702;2023-02-01T00:56:21;5.80;99.90
41965;DHT22;50120;53.250;8.702;2023-02-01T00:58:47;5.80;99.90
41965;DHT22;50120;53.250;8.702;2023-02-01T01:01:25;5.80;99.90
41965;DHT22;50120;53.250;8.702;2023-02-01T01:03:56;5.80;99.90
41965;DHT22;50120;53.250;8.702;2023-02-01T01:06:28;5.80;99.90
41965;DHT22;50120;53.250;8.702;2023-02-01T01:08:55;5.90;99.90
41965;DHT22;50120;53.250;8.702;2023-02-01T01:11:24;5.80;99.90
41965;DHT22;50120;53.250;8.702;2023-02-01T01:13:52;5.80;99.90
41965;DHT22;50120;53.250;8.702;2023-02-01T01:16:18;5.80;99.90
41965;DHT22;50120;53.250;8.702;2023-02-01T01:18:45;5.80;99.90
41965;DHT22;50120;53.250;8.702;2023-02-01T01:21:13;5.80;99.90
41965;DHT22;50120;53.250;8.702;2023-02-01T01:23:39;5.80;99.90
41965;DHT22;50120;53.250;8.702;2023-02-01T01:26:07;5.90;99.90
41965;DHT22;50120;53.250;8.702;2023-02-01T01:28:33;5.90;99.90
41965;DHT22;50120;53.250;8.702;2023-02-01T01:30:59;5.80;99.90
41965;DHT22;50120;53.250;8.702;2023-02-01T01:33:24;5.90;99.90
41965;DHT22;50120;53.250;8.702;2023-02-01T01:35:50;5.90;99.90
41965;DHT22;50120;53.250;8.702;2023-02-01T01:38:16;6.00;99.90
41965;DHT22;50120;53.250;8.702;2023-02-01T01:40:46;5.90;99.90
41965;DHT22;50120;53.250;8.702;2023-02-01T01:43:14;5.90;99.90
41965;DHT22;50120;53.250;8.702;2023-02-01T01:45:40;5.90;99.90
41965;DHT22;50120;53.250;8.702;2023-02-01T01:48:20;5.90;99.90
41965;DHT22;50120;53.250;8.702;2023-02-01T01:51:02;5.90;99.90
41965;DHT22;50120;53.250;8.702;2023-02-01T01:53:33;5.90;99.90
41965;DHT22;50120;53.250;8.702;2023-02-01T01:56:02;5.90;99.90
41965;DHT22;50120;53.250;8.702;2023-02-01T01:58:29;5.90;99.90
41965;DHT22;50120;53.250;8.702;2023-02-01T02:00:57;5.90;99.90
41965;DHT22;50120;53.250;8.702;2023-02-01T02:06:01;5.90;99.90
41965;DHT22;50120;53.250;8.702;2023-02-01T02:08:28;5.90;99.90
41965;DHT22;50120;53.250;8.702;2023-02-01T02:10:54;5.90;99.90
41965;DHT22;50120;53.250;8.702;2023-02-01T02:13:43;5.90;99.90
41965;DHT22;50120;53.250;8.702;2023-02-01T02:27:48;5.90;99.90
41965;DHT22;50120;53.250;8.702;2023-02-01T02:36:15;5.90;99.90
41965;DHT22;50120;53.250;8.702;2023-02-01T02:41:27;5.90;99.90
41965;DHT22;50120;53.250;8.702;2023-02-01T02:44:47;5.90;99.90
41965;DHT22;50120;53.250;8.702;2023-02-01T02:47:36;5.90;99.90
41965;DHT22;50120;53.250;8.702;2023-02-01T02:50:27;5.90;99.90
41965;DHT22;50120;53.250;8.702;2023-02-01T02:53:39;5.90;99.90
41965;DHT22;50120;53.250;8.702;2023-02-01T02:56:23;5.90;99.90
41965;DHT22;50120;53.250;8.702;2023-02-01T02:59:10;5.90;99.90
41965;DHT22;50120;53.250;8.702;2023-02-01T03:01:56;5.90;99.90
41965;DHT22;50120;53.250;8.702;2023-02-01T03:04:40;5.90;99.90
41965;DHT22;50120;53.250;8.702;2023-02-01T03:12:50;5.50;99.90
41965;DHT22;50120;53.250;8.702;2023-02-01T03:16:31;5.10;99.90
41965;DHT22;50120;53.250;8.702;2023-02-01T03:19:15;4.60;99.90
41965;DHT22;50120;53.250;8.702;2023-02-01T03:22:04;4.30;99.90
41965;DHT22;50120;53.250;8.702;2023-02-01T03:25:26;4.20;99.90
41965;DHT22;50120;53.250;8.702;2023-02-01T03:27:36;4.20;99.90
41965;DHT22;50120;53.250;8.702;2023-02-01T03:32:35;4.20;99.90
41965;DHT22;50120;53.250;8.702;2023-02-01T03:39:01;4.20;99.90
41965;DHT22;50120;53.250;8.702;2023-02-01T03:41:41;4.20;99.90
41965;DHT22;50120;53.250;8.702;2023-02-01T03:47:05;4.20;99.90
41965;DHT22;50120;53.250;8.702;2023-02-01T03:49:35;4.30;99.90
41965;DHT22;50120;53.250;8.702;2023-02-01T03:52:02;4.30;99.90
41965;DHT22;50120;53.250;8.702;2023-02-01T03:54:29;4.30;99.90
41965;DHT22;50120;53.250;8.702;2023-02-01T03:56:58;4.30;99.90
41965;DHT22;50120;53.250;8.702;2023-02-01T03:59:27;4.30;99.90
41965;DHT22;50120;53.250;8.702;2023-02-01T04:01:53;4.30;99.90
41965;DHT22;50120;53.250;8.702;2023-02-01T04:04:19;4.30;99.90
41965;DHT22;50120;53.250;8.702;2023-02-01T04:06:49;4.30;99.90
41965;DHT22;50120;53.250;8.702;2023-02-01T04:09:15;4.30;99.90
41965;DHT22;50120;53.250;8.702;2023-02-01T04:11:41;4.30;99.90
41965;DHT22;50120;53.250;8.702;2023-02-01T04:14:07;4.30;99.90
41965;DHT22;50120;53.250;8.702;2023-02-01T04:16:34;4.20;99.90
41965;DHT22;50120;53.250;8.702;2023-02-01T04:19:01;4.10;99.90
41965;DHT22;50120;53.250;8.702;2023-02-01T04:21:27;4.10;99.90
41965;DHT22;50120;53.250;8.702;2023-02-01T04:23:54;4.00;99.90
41965;DHT22;50120;53.250;8.702;2023-02-01T04:26:20;4.00;99.90
41965;DHT22;50120;53.250;8.702;2023-02-01T04:28:47;3.90;99.90
41965;DHT22;50120;53.250;8.702;2023-02-01T04:31:16;3.90;99.90
41965;DHT22;50120;53.250;8.702;2023-02-01T04:33:42;3.90;99.90
41965;DHT22;50120;53.250;8.702;2023-02-01T04:36:08;3.90;99.90
41965;DHT22;50120;53.250;8.702;2023-02-01T04:38:34;3.90;99.90
41965;DHT22;50120;53.250;8.702;2023-02-01T04:41:00;3.90;99.90
41965;DHT22;50120;53.250;8.702;2023-02-01T04:43:26;4.00;99.90
41965;DHT22;50120;53.250;8.702;2023-02-01T04:45:52;4.00;99.90
41965;DHT22;50120;53.250;8.702;2023-02-01T04:48:20;4.00;99.90
41965;DHT22;50120;53.250;8.702;2023-02-01T04:50:48;4.10;99.90
41965;DHT22;50120;53.250;8.702;2023-02-01T04:53:17;4.20;99.90
41965;DHT22;50120;53.250;8.702;2023-02-01T04:55:43;4.20;99.90
41965;DHT22;50120;53.250;8.702;2023-02-01T04:58:10;4.30;99.90
41965;DHT22;50120;53.250;8.702;2023-02-01T05:00:36;4.30;99.90
41965;DHT22;50120;53.250;8.702;2023-02-01T05:03:02;4.40;99.90
41965;DHT22;50120;53.250;8.702;2023-02-01T05:05:28;4.40;99.90
41965;DHT22;50120;53.250;8.702;2023-02-01T05:07:54;4.40;99.90
41965;DHT22;50120;53.250;8.702;2023-02-01T05:10:21;4.50;99.90
41965;DHT22;50120;53.250;8.702;2023-02-01T05:12:46;4.50;99.90
41965;DHT22;50120;53.250;8.702;2023-02-01T05:15:31;4.50;99.90
41965;DHT22;50120;53.250;8.702;2023-02-01T05:17:58;4.50;99.90
41965;DHT22;50120;53.250;8.702;2023-02-01T05:20:24;4.40;99.90
41965;DHT22;50120;53.250;8.702;2023-02-01T05:22:50;4.50;99.90
41965;DHT22;50120;53.250;8.702;2023-02-01T05:25:16;4.50;99.90
41965;DHT22;50120;53.250;8.702;2023-02-01T05:27:42;4.40;99.90
41965;DHT22;50120;53.250;8.702;2023-02-01T05:30:09;4.40;99.90
41965;DHT22;50120;53.250;8.702;2023-02-01T05:32:35;4.40;99.90
41965;DHT22;50120;53.250;8.702;2023-02-01T05:35:01;4.30;99.90
41965;DHT22;50120;53.250;8.702;2023-02-01T05:37:27;4.30;99.90
41965;DHT22;50120;53.250;8.702;2023-02-01T05:39:53;4.30;99.90
41965;DHT22;50120;53.250;8.702;2023-02-01T05:42:19;4.40;99.90
41965;DHT22;50120;53.250;8.702;2023-02-01T05:44:44;4.40;99.90
41965;DHT22;50120;53.250;8.702;2023-02-01T05:47:10;4.40;99.90
41965;DHT22;50120;53.250;8.702;2023-02-01T05:49:36;4.40;99.90
41965;DHT22;50120;53.250;8.702;2023-02-01T05:52:02;4.50;99.90
41965;DHT22;50120;53.250;8.702;2023-02-01T05:54:28;4.50;99.90
41965;DHT22;50120;53.250;8.702;2023-02-01T05:56:54;4.50;99.90
41965;DHT22;50120;53.250;8.702;2023-02-01T05:59:20;4.50;99.90
41965;DHT22;50120;53.250;8.702;2023-02-01T06:01:45;4.50;99.90
41965;DHT22;50120;53.250;8.702;2023-02-01T06:04:11;4.50;99.90
41965;DHT22;50120;53.250;8.702;2023-02-01T06:06:37;4.60;99.90
41965;DHT22;50120;53.250;8.702;2023-02-01T06:09:03;4.50;99.90
41965;DHT22;50120;53.250;8.702;2023-02-01T06:11:29;4.60;99.90
41965;DHT22;50120;53.250;8.702;2023-02-01T06:13:55;4.60;99.90
41965;DHT22;50120;53.250;8.702;2023-02-01T06:16:22;4.50;99.90
41965;DHT22;50120;53.250;8.702;2023-02-01T06:18:48;4.60;99.90
41965;DHT22;50120;53.250;8.702;2023-02-01T06:21:15;4.60;99.90
41965;DHT22;50120;53.250;8.702;2023-02-01T06:23:49;4.60;99.90
41965;DHT22;50120;53.250;8.702;2023-02-01T06:26:16;4.60;99.90
41965;DHT22;50120;53.250;8.702;2023-02-01T06:28:43;4.60;99.90
41965;DHT22;50120;53.250;8.702;2023-02-01T06:31:09;4.60;99.90
41965;DHT22;50120;53.250;8.702;2023-02-01T06:33:36;4.60;99.90
41965;DHT22;50120;53.250;8.702;2023-02-01T06:36:04;4.60;99.90
41965;DHT22;50120;53.250;8.702;2023-02-01T06:38:31;4.70;99.90
41965;DHT22;50120;53.250;8.702;2023-02-01T06:40:57;4.60;99.90
41965;DHT22;50120;53.250;8.702;2023-02-01T06:43:24;4.70;99.90
41965;DHT22;50120;53.250;8.702;2023-02-01T06:45:51;4.70;99.90
41965;DHT22;50120;53.250;8.702;2023-02-01T06:48:17;4.70;99.90
41965;DHT22;50120;53.250;8.702;2023-02-01T06:50:43;4.70;99.90
41965;DHT22;50120;53.250;8.702;2023-02-01T06:53:09;4.70;99.90
41965;DHT22;50120;53.250;8.702;2023-02-01T06:55:35;4.60;99.90
41965;DHT22;50120;53.250;8.702;2023-02-01T06:58:01;4.70;99.90
41965;DHT22;50120;53.250;8.702;2023-02-01T07:00:28;4.70;99.90
41965;DHT22;50120;53.250;8.702;2023-02-01T07:02:57;4.70;99.90
41965;DHT22;50120;53.250;8.702;2023-02-01T07:05:23;4.70;99.90
41965;DHT22;50120;53.250;8.702;2023-02-01T07:07:48;4.70;99.90
41965;DHT22;50120;53.250;8.702;2023-02-01T07:10:14;4.70;99.90
41965;DHT22;50120;53.250;8.702;2023-02-01T07:12:40;4.80;99.90
41965;DHT22;50120;53.250;8.702;2023-02-01T07:15:06;4.70;99.90
41965;DHT22;50120;53.250;8.702;2023-02-01T07:17:32;4.80;99.90
41965;DHT22;50120;53.250;8.702;2023-02-01T07:19:58;4.80;99.90
41965;DHT22;50120;53.250;8.702;2023-02-01T07:22:27;4.80;99.90
41965;DHT22;50120;53.250;8.702;2023-02-01T07:24:53;4.70;99.90
41965;DHT22;50120;53.250;8.702;2023-02-01T07:27:18;4.80;99.90
41965;DHT22;50120;53.250;8.702;2023-02-01T07:29:45;4.80;99.90
41965;DHT22;50120;53.250;8.702;2023-02-01T07:32:11;4.70;99.90
41965;DHT22;50120;53.250;8.702;2023-02-01T07:34:36;4.80;99.90
41965;DHT22;50120;53.250;8.702;2023-02-01T07:37:02;4.80;99.90
41965;DHT22;50120;53.250;8.702;2023-02-01T07:39:28;4.80;99.90
41965;DHT22;50120;53.250;8.702;2023-02-01T07:41:54;4.80;99.90
41965;DHT22;50120;53.250;8.702;2023-02-01T07:44:20;4.80;99.90
41965;DHT22;50120;53.250;8.702;2023-02-01T07:46:49;4.80;99.90
41965;DHT22;50120;53.250;8.702;2023-02-01T07:49:14;4.80;99.90
41965;DHT22;50120;53.250;8.702;2023-02-01T07:51:40;4.80;99.90
41965;DHT22;50120;53.250;8.702;2023-02-01T07:54:06;4.70;99.90
41965;DHT22;50120;53.250;8.702;2023-02-01T07:56:32;4.70;99.90
41965;DHT22;50120;53.250;8.702;2023-02-01T07:58:57;4.70;99.90
41965;DHT22;50120;53.250;8.702;2023-02-01T08:01:27;4.70;99.90
41965;DHT22;50120;53.250;8.702;2023-02-01T08:03:54;4.70;99.90
41965;DHT22;50120;53.250;8.702;2023-02-01T08:06:21;4.70;99.90
41965;DHT22;50120;53.250;8.702;2023-02-01T08:08:50;4.80;99.90
41965;DHT22;50120;53.250;8.702;2023-02-01T08:11:17;4.80;99.90
41965;DHT22;50120;53.250;8.702;2023-02-01T08:13:43;4.80;99.90
41965;DHT22;50120;53.250;8.702;2023-02-01T08:16:11;4.80;99.90
41965;DHT22;50120;53.250;8.702;2023-02-01T08:18:38;4.80;99.90
41965;DHT22;50120;53.250;8.702;2023-02-01T08:21:09;4.80;99.90
41965;DHT22;50120;53.250;8.702;2023-02-01T08:23:36;4.80;99.90
41965;DHT22;50120;53.250;8.702;2023-02-01T08:26:10;4.80;99.90
41965;DHT22;50120;53.250;8.702;2023-02-01T08:28:37;4.80;99.90
41965;DHT22;50120;53.250;8.702;2023-02-01T08:31:08;4.90;99.90
41965;DHT22;50120;53.250;8.702;2023-02-01T08:33:35;4.90;99.90
41965;DHT22;50120;53.250;8.702;2023-02-01T08:36:03;4.90;99.90
41965;DHT22;50120;53.250;8.702;2023-02-01T08:38:29;4.90;99.90
41965;DHT22;50120;53.250;8.702;2023-02-01T08:40:55;5.00;99.90
41965;DHT22;50120;53.250;8.702;2023-02-01T08:43:21;5.00;99.90
41965;DHT22;50120;53.250;8.702;2023-02-01T08:45:46;5.10;99.90
41965;DHT22;50120;53.250;8.702;2023-02-01T08:48:12;5.10;99.90
41965;DHT22;50120;53.250;8.702;2023-02-01T08:50:38;5.10;99.90
41965;DHT22;50120;53.250;8.702;2023-02-01T08:53:03;5.10;99.90
41965;DHT22;50120;53.250;8.702;2023-02-01T08:55:29;5.10;99.90
41965;DHT22;50120;53.250;8.702;2023-02-01T08:57:55;5.00;99.90
41965;DHT22;50120;53.250;8.702;2023-02-01T09:00:21;5.00;99.90
41965;DHT22;50120;53.250;8.702;2023-02-01T09:02:47;5.10;99.90
41965;DHT22;50120;53.250;8.702;2023-02-01T09:05:13;5.10;99.90
41965;DHT22;50120;53.250;8.702;2023-02-01T09:07:41;5.10;99.90
41965;DHT22;50120;53.250;8.702;2023-02-01T09:10:08;5.10;99.90
41965;DHT22;50120;53.250;8.702;2023-02-01T09:12:35;5.00;99.90
41965;DHT22;50120;53.250;8.702;2023-02-01T09:15:01;5.00;99.90
41965;DHT22;50120;53.250;8.702;2023-02-01T09:17:29;5.00;99.90
41965;DHT22;50120;53.250;8.702;2023-02-01T09:19:54;5.10;99.90
41965;DHT22;50120;53.250;8.702;2023-02-01T09:22:20;5.10;99.90
41965;DHT22;50120;53.250;8.702;2023-02-01T09:24:46;5.10;99.90
41965;DHT22;50120;53.250;8.702;2023-02-01T09:27:12;5.20;99.90
41965;DHT22;50120;53.250;8.702;2023-02-01T09:29:38;5.10;99.90
41965;DHT22;50120;53.250;8.702;2023-02-01T09:32:03;5.10;99.90
41965;DHT22;50120;53.250;8.702;2023-02-01T09:34:30;5.20;99.90
41965;DHT22;50120;53.250;8.702;2023-02-01T09:36:55;5.10;99.90
41965;DHT22;50120;53.250;8.702;2023-02-01T09:39:21;5.20;99.90
41965;DHT22;50120;53.250;8.702;2023-02-01T09:41:59;5.20;99.90
41965;DHT22;50120;53.250;8.702;2023-02-01T09:47:26;5.20;99.90
41965;DHT22;50120;53.250;8.702;2023-02-01T09:50:28;5.20;99.90
41965;DHT22;50120;53.250;8.702;2023-02-01T09:55:20;5.20;99.90
41965;DHT22;50120;53.250;8.702;2023-02-01T09:58:49;5.20;99.90
41965;DHT22;50120;53.250;8.702;2023-02-01T10:00:53;5.20;99.90
41965;DHT22;50120;53.250;8.702;2023-02-01T10:03:20;5.20;99.90
41965;DHT22;50120;53.250;8.702;2023-02-01T10:12:00;5.30;99.90
41965;DHT22;50120;53.250;8.702;2023-02-01T10:14:53;5.20;99.90
41965;DHT22;50120;53.250;8.702;2023-02-01T10:20:12;5.30;99.90
41965;DHT22;50120;53.250;8.702;2023-02-01T10:22:43;5.30;99.90
41965;DHT22;50120;53.250;8.702;2023-02-01T10:25:15;5.30;99.90
41965;DHT22;50120;53.250;8.702;2023-02-01T10:27:43;5.30;99.90
41965;DHT22;50120;53.250;8.702;2023-02-01T10:30:19;5.30;99.90
41965;DHT22;50120;53.250;8.702;2023-02-01T10:32:45;5.20;99.90
41965;DHT22;50120;53.250;8.702;2023-02-01T10:35:14;5.30;99.90
41965;DHT22;50120;53.250;8.702;2023-02-01T10:37:41;5.30;99.90
41965;DHT22;50120;53.250;8.702;2023-02-01T10:42:44;5.30;99.90
41965;DHT22;50120;53.250;8.702;2023-02-01T10:45:14;5.30;99.90
41965;DHT22;50120;53.250;8.702;2023-02-01T10:47:42;5.30;99.90
41965;DHT22;50120;53.250;8.702;2023-02-01T10:53:21;5.30;99.90
41965;DHT22;50120;53.250;8.702;2023-02-01T10:55:51;5.20;99.90
41965;DHT22;50120;53.250;8.702;2023-02-01T10:58:19;5.20;99.90
41965;DHT22;50120;53.250;8.702;2023-02-01T11:03:41;5.10;99.90
41965;DHT22;50120;53.250;8.702;2023-02-01T11:09:21;5.00;99.90
41965;DHT22;50120;53.250;8.702;2023-02-01T11:14:17;5.00;99.90
41965;DHT22;50120;53.250;8.702;2023-02-01T11:16:58;5.00;99.90
41965;DHT22;50120;53.250;8.702;2023-02-01T11:19:24;5.00;99.90
41965;DHT22;50120;53.250;8.702;2023-02-01T11:21:55;5.00;99.90
41965;DHT22;50120;53.250;8.702;2023-02-01T11:24:25;5.00;99.90
41965;DHT22;50120;53.250;8.702;2023-02-01T11:26:56;5.00;99.90
41965;DHT22;50120;53.250;8.702;2023-02-01T11:29:23;4.90;99.90
41965;DHT22;50120;53.250;8.702;2023-02-01T11:31:56;4.90;99.90
41965;DHT22;50120;53.250;8.702;2023-02-01T11:34:28;4.90;99.90
41965;DHT22;50120;53.250;8.702;2023-02-01T11:36:59;4.90;99.90
41965;DHT22;50120;53.250;8.702;2023-02-01T11:39:33;4.80;99.90
41965;DHT22;50120;53.250;8.702;2023-02-01T11:42:12;4.80;99.90
41965;DHT22;50120;53.250;8.702;2023-02-01T11:44:41;4.60;99.90
41965;DHT22;50120;53.250;8.702;2023-02-01T11:49:52;4.60;99.90
41965;DHT22;50120;53.250;8.702;2023-02-01T11:58:04;4.40;99.90
41965;DHT22;50120;53.250;8.702;2023-02-01T12:09:49;2.40;99.90
41965;DHT22;50120;53.250;8.702;2023-02-01T12:12:38;1.70;99.90
41965;DHT22;50120;53.250;8.702;2023-02-01T12:17:42;1.30;99.90
41965;DHT22;50120;53.250;8.702;2023-02-01T12:20:44;1.30;99.90
41965;DHT22;50120;53.250;8.702;2023-02-01T12:23:35;1.20;99.90
41965;DHT22;50120;53.250;8.702;2023-02-01T12:32:09;1.30;99.90
41965;DHT22;50120;53.250;8.702;2023-02-01T12:35:10;1.30;99.90
41965;DHT22;50120;53.250;8.702;2023-02-01T12:37:45;1.30;99.90
41965;DHT22;50120;53.250;8.702;2023-02-01T12:40:37;1.30;99.90
41965;DHT22;50120;53.250;8.702;2023-02-01T12:43:12;1.30;99.90
41965;DHT22;50120;53.250;8.702;2023-02-01T12:45:56;1.40;99.90
41965;DHT22;50120;53.250;8.702;2023-02-01T12:51:17;1.50;99.90
41965;DHT22;50120;53.250;8.702;2023-02-01T12:53:57;1.50;99.90
41965;DHT22;50120;53.250;8.702;2023-02-01T12:56:48;1.60;99.90
41965;DHT22;50120;53.250;8.702;2023-02-01T13:02:04;1.70;99.90
41965;DHT22;50120;53.250;8.702;2023-02-01T13:04:42;1.80;99.90
41965;DHT22;50120;53.250;8.702;2023-02-01T13:07:16;1.80;99.90
41965;DHT22;50120;53.250;8.702;2023-02-01T13:09:51;2.00;99.90
41965;DHT22;50120;53.250;8.702;2023-02-01T13:15:40;2.50;99.90
41965;DHT22;50120;53.250;8.702;2023-02-01T13:18:13;2.70;99.90
41965;DHT22;50120;53.250;8.702;2023-02-01T13:21:02;2.80;99.90
41965;DHT22;50120;53.250;8.702;2023-02-01T13:23:35;3.00;99.90
41965;DHT22;50120;53.250;8.702;2023-02-01T13:26:02;3.10;99.90
41965;DHT22;50120;53.250;8.702;2023-02-01T13:40:26;3.50;99.90
41965;DHT22;50120;53.250;8.702;2023-02-01T13:42:59;3.60;99.90
41965;DHT22;50120;53.250;8.702;2023-02-01T13:45:29;3.70;99.90
41965;DHT22;50120;53.250;8.702;2023-02-01T13:47:58;3.70;99.90
41965;DHT22;50120;53.250;8.702;2023-02-01T13:53:00;3.90;99.90
41965;DHT22;50120;53.250;8.702;2023-02-01T13:55:32;4.00;99.90
41965;DHT22;50120;53.250;8.702;2023-02-01T14:00:40;4.20;99.90
41965;DHT22;50120;53.250;8.702;2023-02-01T14:10:53;4.30;99.90
41965;DHT22;50120;53.250;8.702;2023-02-01T14:13:34;4.40;99.90
41965;DHT22;50120;53.250;8.702;2023-02-01T14:18:57;4.40;99.90
41965;DHT22;50120;53.250;8.702;2023-02-01T14:21:34;4.50;99.90
41965;DHT22;50120;53.250;8.702;2023-02-01T14:29:01;4.60;99.90
41965;DHT22;50120;53.250;8.702;2023-02-01T14:34:02;4.70;99.90
41965;DHT22;50120;53.250;8.702;2023-02-01T14:36:50;4.80;99.90
41965;DHT22;50120;53.250;8.702;2023-02-01T14:42:25;5.00;99.90
41965;DHT22;50120;53.250;8.702;2023-02-01T14:44:53;5.00;99.90
41965;DHT22;50120;53.250;8.702;2023-02-01T14:47:27;4.90;99.90
41965;DHT22;50120;53.250;8.702;2023-02-01T14:52:37;5.00;99.90
41965;DHT22;50120;53.250;8.702;2023-02-01T14:57:59;5.00;99.90
41965;DHT22;50120;53.250;8.702;2023-02-01T15:00:29;5.10;99.90
41965;DHT22;50120;53.250;8.702;2023-02-01T15:03:19;5.10;99.90
41965;DHT22;50120;53.250;8.702;2023-02-01T15:05:58;5.10;99.90
41965;DHT22;50120;53.250;8.702;2023-02-01T15:08:30;5.10;99.90
41965;DHT22;50120;53.250;8.702;2023-02-01T15:10:58;5.10;99.90
41965;DHT22;50120;53.250;8.702;2023-02-01T15:13:27;5.10;99.90
41965;DHT22;50120;53.250;8.702;2023-02-01T15:16:11;5.10;99.90
41965;DHT22;50120;53.250;8.702;2023-02-01T15:18:38;5.10;99.90
41965;DHT22;50120;53.250;8.702;2023-02-01T15:21:05;5.20;99.90
41965;DHT22;50120;53.250;8.702;2023-02-01T15:23:32;5.20;99.90
41965;DHT22;50120;53.250;8.702;2023-02-01T15:25:58;5.20;99.90
41965;DHT22;50120;53.250;8.702;2023-02-01T15:28:26;5.20;99.90
41965;DHT22;50120;53.250;8.702;2023-02-01T15:31:00;5.20;99.90
41965;DHT22;50120;53.250;8.702;2023-02-01T15:33:27;6.50;99.90
41965;DHT22;50120;53.250;8.702;2023-02-01T15:36:06;5.00;99.90
41965;DHT22;50120;53.250;8.702;2023-02-01T15:38:39;4.60;99.90
41965;DHT22;50120;53.250;8.702;2023-02-01T15:41:09;4.40;99.90
41965;DHT22;50120;53.250;8.702;2023-02-01T15:46:38;4.00;99.90
41965;DHT22;50120;53.250;8.702;2023-02-01T15:49:20;3.90;99.90
41965;DHT22;50120;53.250;8.702;2023-02-01T15:51:49;3.90;99.90
41965;DHT22;50120;53.250;8.702;2023-02-01T15:54:24;4.00;99.90
41965;DHT22;50120;53.250;8.702;2023-02-01T16:00:02;4.10;99.90
41965;DHT22;50120;53.250;8.702;2023-02-01T16:02:36;4.10;99.90
41965;DHT22;50120;53.250;8.702;2023-02-01T16:05:05;4.10;99.90
41965;DHT22;50120;53.250;8.702;2023-02-01T16:07:32;4.20;99.90
41965;DHT22;50120;53.250;8.702;2023-02-01T16:10:00;4.20;99.90
41965;DHT22;50120;53.250;8.702;2023-02-01T16:12:46;4.20;99.90
41965;DHT22;50120;53.250;8.702;2023-02-01T16:15:12;4.20;99.90
41965;DHT22;50120;53.250;8.702;2023-02-01T16:17:38;4.20;99.90
41965;DHT22;50120;53.250;8.702;2023-02-01T16:20:04;4.20;99.90
41965;DHT22;50120;53.250;8.702;2023-02-01T16:22:30;4.20;99.90
41965;DHT22;50120;53.250;8.702;2023-02-01T16:24:56;4.20;99.90
41965;DHT22;50120;53.250;8.702;2023-02-01T16:27:22;4.10;99.90
41965;DHT22;50120;53.250;8.702;2023-02-01T16:29:48;4.10;99.90
41965;DHT22;50120;53.250;8.702;2023-02-01T16:32:18;4.00;99.90
41965;DHT22;50120;53.250;8.702;2023-02-01T16:34:46;4.00;99.90
41965;DHT22;50120;53.250;8.702;2023-02-01T16:37:21;4.00;99.90
41965;DHT22;50120;53.250;8.702;2023-02-01T16:39:48;4.00;99.90
41965;DHT22;50120;53.250;8.702;2023-02-01T16:42:15;4.00;99.90
41965;DHT22;50120;53.250;8.702;2023-02-01T16:44:41;4.00;99.90
41965;DHT22;50120;53.250;8.702;2023-02-01T16:47:19;4.00;99.90
41965;DHT22;50120;53.250;8.702;2023-02-01T16:49:45;4.00;99.90
41965;DHT22;50120;53.250;8.702;2023-02-01T16:52:22;4.00;99.90
41965;DHT22;50120;53.250;8.702;2023-02-01T16:54:48;4.00;99.90
41965;DHT22;50120;53.250;8.702;2023-02-01T16:57:16;4.00;99.90
41965;DHT22;50120;53.250;8.702;2023-02-01T16:59:42;4.00;99.90
41965;DHT22;50120;53.250;8.702;2023-02-01T17:02:14;4.00;99.90
41965;DHT22;50120;53.250;8.702;2023-02-01T17:04:40;4.10;99.90
41965;DHT22;50120;53.250;8.702;2023-02-01T17:07:07;4.10;99.90
41965;DHT22;50120;53.250;8.702;2023-02-01T17:09:36;4.10;99.90
41965;DHT22;50120;53.250;8.702;2023-02-01T17:12:03;4.20;99.90
41965;DHT22;50120;53.250;8.702;2023-02-01T17:14:31;4.20;99.90
41965;DHT22;50120;53.250;8.702;2023-02-01T17:16:58;4.20;99.90
41965;DHT22;50120;53.250;8.702;2023-02-01T17:19:24;4.10;99.90
41965;DHT22;50120;53.250;8.702;2023-02-01T17:21:52;4.10;99.90
41965;DHT22;50120;53.250;8.702;2023-02-01T17:24:22;4.10;99.90
41965;DHT22;50120;53.250;8.702;2023-02-01T17:26:49;4.00;99.90
41965;DHT22;50120;53.250;8.702;2023-02-01T17:29:16;3.90;99.90
41965;DHT22;50120;53.250;8.702;2023-02-01T17:31:44;3.90;99.90
41965;DHT22;50120;53.250;8.702;2023-02-01T17:34:11;3.80;99.90
41965;DHT22;50120;53.250;8.702;2023-02-01T17:36:40;3.80;99.90
41965;DHT22;50120;53.250;8.702;2023-02-01T17:39:07;3.80;99.90
41965;DHT22;50120;53.250;8.702;2023-02-01T17:41:33;3.80;99.90
41965;DHT22;50120;53.250;8.702;2023-02-01T17:44:00;3.70;99.90
41965;DHT22;50120;53.250;8.702;2023-02-01T17:46:26;3.70;99.90
41965;DHT22;50120;53.250;8.702;2023-02-01T17:48:53;3.70;99.90
41965;DHT22;50120;53.250;8.702;2023-02-01T17:51:27;3.70;99.90
41965;DHT22;50120;53.250;8.702;2023-02-01T17:53:53;3.80;99.90
41965;DHT22;50120;53.250;8.702;2023-02-01T17:56:22;3.80;99.90
41965;DHT22;50120;53.250;8.702;2023-02-01T17:58:48;3.80;99.90
41965;DHT22;50120;53.250;8.702;2023-02-01T18:01:19;3.80;99.90
41965;DHT22;50120;53.250;8.702;2023-02-01T18:03:46;3.90;99.90
41965;DHT22;50120;53.250;8.702;2023-02-01T18:06:17;3.90;99.90
41965;DHT22;50120;53.250;8.702;2023-02-01T18:08:43;3.90;99.90
41965;DHT22;50120;53.250;8.702;2023-02-01T18:11:21;3.90;99.90
41965;DHT22;50120;53.250;8.702;2023-02-01T18:13:48;4.00;99.90
41965;DHT22;50120;53.250;8.702;2023-02-01T18:16:21;4.00;99.90
41965;DHT22;50120;53.250;8.702;2023-02-01T18:18:47;4.00;99.90
41965;DHT22;50120;53.250;8.702;2023-02-01T18:21:15;4.00;99.90
41965;DHT22;50120;53.250;8.702;2023-02-01T18:23:42;4.10;99.90
41965;DHT22;50120;53.250;8.702;2023-02-01T18:26:12;4.10;99.90
41965;DHT22;50120;53.250;8.702;2023-02-01T18:28:38;4.10;99.90
41965;DHT22;50120;53.250;8.702;2023-02-01T18:31:04;4.20;99.90
41965;DHT22;50120;53.250;8.702;2023-02-01T18:33:30;4.10;99.90